Senyomaru — JI3557 — position and weather

sailwx.info

Track history (hours):
 
Tides and Currents Weather Stations Pressure Air Temp Water Temp Dewpoint Dewpoint Depression Visibility Wind Speed Wind Dir Waves Ship Positions

Senyomaru

Last reported at 2015-Aug-22 10:11 UTC. Time now 2015-Aug-28 12:45 UTC.
Position N 34°35' E 134°53'.

Length 69 m; draft 4 m.

Type: Tanker. MMSI: 431300188.

Date/timePositionNaut miles runAvg speedWind from/ knotsBaromVisibWave heightAir tempDewpointWater temp
2015-Aug-22 10:11N 34°35' E 134°53'710.5
2015-Aug-22 09:31N 34°37' E 135°01'1010.7
2015-Aug-22 08:34N 34°35' E 135°13'10 1.0
2015-Aug-21 22:28N 34°33' E 135°26'3 2.7
2015-Aug-21 21:31N 34°34' E 135°23'0 0.0
2015-Aug-21 20:19N 34°34' E 135°23'0 0.0
2015-Aug-21 17:31N 34°34' E 135°23'0 0.0
2015-Aug-21 16:31N 34°34' E 135°23'0 0.0
2015-Aug-21 15:31N 34°34' E 135°23'0 0.0
2015-Aug-21 14:25N 34°34' E 135°23'0 0.0
2015-Aug-21 13:19N 34°34' E 135°23'0 0.0
2015-Aug-21 12:19N 34°34' E 135°23'0 0.0
2015-Aug-21 11:25N 34°34' E 135°23'0 0.0
2015-Aug-20 23:19N 34°34' E 135°23'0 0.0
2015-Aug-20 22:31N 34°34' E 135°23'2 1.6
2015-Aug-20 21:32N 34°34' E 135°21'1212.0
2015-Aug-20 20:33N 34°34' E 135°07'7 0.2
2015-Aug-19 09:32N 34°38' E 134°59'9 9.0
2015-Aug-19 08:33N 34°35' E 135°10'1211.6
2015-Aug-19 07:31N 34°33' E 135°24'2 0.0
2015-Aug-17 18:27N 34°34' E 135°23'0 0.1
2015-Aug-17 17:27N 34°34' E 135°23'0 0.0
2015-Aug-17 13:33N 34°34' E 135°23'0 0.0
2015-Aug-17 12:32N 34°34' E 135°23'8 8.3
2015-Aug-17 11:33N 34°34' E 135°13'  
Track history (hours):
 
Tides and Currents Weather Stations Pressure Air Temp Water Temp Dewpoint Dewpoint Depression Visibility Wind Speed Wind Dir Waves Ship Positions

Senyomaru

Last reported at 2015-Aug-22 10:11 UTC. Time now 2015-Aug-28 12:45 UTC.
Position N 34°35' E 134°53'.

Length 69 m; draft 4 m.

Type: Tanker. MMSI: 431300188.

Date/timePositionNaut miles runAvg speedWind from/ knotsBaromVisibWave heightAir tempDewpointWater temp
2015-Aug-22 10:11N 34°35' E 134°53'710.5
2015-Aug-22 09:31N 34°37' E 135°01'1010.7
2015-Aug-22 08:34N 34°35' E 135°13'10 1.0
2015-Aug-21 22:28N 34°33' E 135°26'3 2.7
2015-Aug-21 21:31N 34°34' E 135°23'0 0.0
2015-Aug-21 20:19N 34°34' E 135°23'0 0.0
2015-Aug-21 17:31N 34°34' E 135°23'0 0.0
2015-Aug-21 16:31N 34°34' E 135°23'0 0.0
2015-Aug-21 15:31N 34°34' E 135°23'0 0.0
2015-Aug-21 14:25N 34°34' E 135°23'0 0.0
2015-Aug-21 13:19N 34°34' E 135°23'0 0.0
2015-Aug-21 12:19N 34°34' E 135°23'0 0.0
2015-Aug-21 11:25N 34°34' E 135°23'0 0.0
2015-Aug-20 23:19N 34°34' E 135°23'0 0.0
2015-Aug-20 22:31N 34°34' E 135°23'2 1.6
2015-Aug-20 21:32N 34°34' E 135°21'1212.0
2015-Aug-20 20:33N 34°34' E 135°07'7 0.2
2015-Aug-19 09:32N 34°38' E 134°59'9 9.0
2015-Aug-19 08:33N 34°35' E 135°10'1211.6
2015-Aug-19 07:31N 34°33' E 135°24'2 0.0
2015-Aug-17 18:27N 34°34' E 135°23'0 0.1
2015-Aug-17 17:27N 34°34' E 135°23'0 0.0
2015-Aug-17 13:33N 34°34' E 135°23'0 0.0
2015-Aug-17 12:32N 34°34' E 135°23'8 8.3
2015-Aug-17 11:33N 34°34' E 135°13'  

Dump ship's entire track history